Time;durP1;ratioP1;P1;durP2;ratioP2;P2;SDS_P1;SDS_P2;PMS_P1;PMS_P2;Temp;Humidity;BMP_temperature;BMP_pressure;BME280_temperature;BME280_humidity;BME280_pressure;Samples;Min_cycle;Max_cycle;Signal;HPM_P1;HPM_P2
2021/03/12 00:00:18;;;;;;;27.62;9.38;;;;;;;-11.23;54.28;102176.42;1706179;84;21184;-56
2021/03/12 00:02:51;;;;;;;28.30;8.70;;;;;;;-11.24;54.29;102173.44;1701929;84;21288;-59
2021/03/12 00:05:24;;;;;;;24.92;10.03;;;;;;;-11.24;54.40;102172.17;1689525;84;21232;-56
2021/03/12 00:07:57;;;;;;;28.38;10.35;;;;;;;-11.20;54.29;102169.34;1682060;85;21334;-58
2021/03/12 00:10:30;;;;;;;24.07;9.25;;;;;;;-11.21;54.03;102157.50;1682028;84;21284;-56
2021/03/12 00:13:03;;;;;;;34.73;9.10;;;;;;;-11.21;54.00;102162.55;1682601;85;21862;-57
2021/03/12 00:15:37;;;;;;;28.42;9.03;;;;;;;-11.22;54.04;102159.56;1682847;84;21150;-57
2021/03/12 00:18:10;;;;;;;27.85;9.35;;;;;;;-11.21;54.09;102159.63;1681015;85;21236;-56
2021/03/12 00:20:43;;;;;;;25.32;8.78;;;;;;;-11.20;53.99;102165.55;1683349;85;21268;-56
2021/03/12 00:23:16;;;;;;;30.68;11.55;;;;;;;-11.21;54.01;102157.09;1685081;85;21299;-57
2021/03/12 00:25:49;;;;;;;40.30;13.80;;;;;;;-11.17;54.00;102168.14;1685137;85;21170;-56
2021/03/12 00:28:22;;;;;;;75.25;23.90;;;;;;;-11.20;53.90;102165.12;1684870;85;21311;-57
2021/03/12 00:30:56;;;;;;;108.55;31.75;;;;;;;-11.22;53.94;102160.83;1684219;85;21169;-56
2021/03/12 00:33:29;;;;;;;126.65;38.83;;;;;;;-11.31;53.94;102156.38;1684794;85;21307;-57
2021/03/12 00:36:05;;;;;;;44.00;16.48;;;;;;;-11.33;53.99;102159.66;1683656;85;21203;-57
2021/03/12 00:38:38;;;;;;;52.58;18.20;;;;;;;-11.33;53.98;102152.94;1684672;85;21312;-57
2021/03/12 00:41:11;;;;;;;49.50;17.12;;;;;;;-11.33;53.90;102154.61;1683983;85;21343;-57
2021/03/12 00:43:46;;;;;;;38.05;14.18;;;;;;;-11.30;53.91;102158.09;1683185;85;21323;-56
2021/03/12 00:46:24;;;;;;;44.23;15.78;;;;;;;-11.29;53.70;102147.55;1683271;85;21283;-57
2021/03/12 00:48:57;;;;;;;37.65;14.40;;;;;;;-11.32;53.65;102150.02;1684921;85;21204;-58
2021/03/12 00:51:31;;;;;;;30.40;12.25;;;;;;;-11.36;53.71;102150.31;1683666;85;21672;-59
2021/03/12 00:54:07;;;;;;;38.63;14.20;;;;;;;-11.38;53.72;102144.77;1677063;85;21328;-57
2021/03/12 00:56:41;;;;;;;30.97;12.15;;;;;;;-11.38;53.70;102157.00;1675033;85;21332;-56
2021/03/12 00:59:14;;;;;;;48.17;15.18;;;;;;;-11.42;53.62;102153.94;1675452;85;21334;-56
2021/03/12 01:01:49;;;;;;;39.23;13.43;;;;;;;-11.42;53.90;102148.88;1673655;85;21315;-57
2021/03/12 01:04:23;;;;;;;71.57;21.90;;;;;;;-11.39;53.93;102156.97;1673828;85;21169;-57
2021/03/12 01:06:58;;;;;;;41.80;13.20;;;;;;;-11.42;53.97;102157.73;1673778;85;21241;-56
2021/03/12 01:09:31;;;;;;;;;;;;;;;-11.39;54.40;102158.23;1677653;85;21300;-57
2021/03/12 01:12:06;;;;;;;30.25;11.08;;;;;;;-11.42;53.98;102156.87;1673864;85;20293;-57
2021/03/12 01:14:40;;;;;;;39.58;12.33;;;;;;;-11.54;53.94;102153.97;1674708;85;21772;-57
2021/03/12 01:17:13;;;;;;;15.72;6.78;;;;;;;-11.56;54.25;102149.27;1675725;85;21164;-57
2021/03/12 01:19:46;;;;;;;21.80;8.80;;;;;;;-11.54;54.13;102150.17;1675225;85;21308;-57
2021/03/12 01:22:20;;;;;;;23.77;8.08;;;;;;;-11.57;53.68;102150.08;1674354;85;21181;-57
2021/03/12 01:24:53;;;;;;;29.45;8.73;;;;;;;-11.61;53.47;102152.06;1675292;85;21185;-57
2021/03/12 01:27:27;;;;;;;33.30;11.33;;;;;;;-11.63;53.61;102156.22;1664057;85;21275;-57
2021/03/12 01:30:01;;;;;;;30.30;10.35;;;;;;;-11.62;54.04;102165.49;1675057;85;21303;-56
2021/03/12 01:32:35;;;;;;;23.40;8.93;;;;;;;-11.61;54.09;102163.44;1673713;85;21273;-57
2021/03/12 01:35:11;;;;;;;20.90;7.40;;;;;;;-11.63;54.22;102154.55;1675362;85;21815;-56
2021/03/12 01:37:45;;;;;;;17.48;5.97;;;;;;;-11.74;54.38;102159.69;1675469;85;21170;-56
2021/03/12 01:40:19;;;;;;;;;;;;;;;-11.86;54.46;102157.64;1677594;85;21811;-57
2021/03/12 01:42:56;;;;;;;77.17;21.42;;;;;;;-11.93;54.46;102156.99;1673796;85;20250;-56
2021/03/12 01:45:36;;;;;;;82.35;24.55;;;;;;;-12.06;54.33;102156.55;1663449;85;21213;-56
2021/03/12 01:48:13;;;;;;;34.03;11.55;;;;;;;-12.11;54.32;102163.98;1675270;85;21272;-56
2021/03/12 01:50:54;;;;;;;26.62;7.92;;;;;;;-12.15;54.21;102172.63;1674973;85;21344;-57
2021/03/12 01:53:28;;;;;;;16.65;6.05;;;;;;;-12.15;54.29;102177.28;1674070;84;21355;-56
2021/03/12 01:56:02;;;;;;;22.22;7.75;;;;;;;-12.17;54.20;102179.30;1674940;85;21295;-57
2021/03/12 01:58:36;;;;;;;29.45;9.83;;;;;;;-12.18;54.26;102181.39;1673709;85;21814;-57
2021/03/12 02:01:11;;;;;;;14.45;5.53;;;;;;;-12.17;54.25;102178.91;1674416;85;21914;-57
2021/03/12 02:03:49;;;;;;;19.10;5.50;;;;;;;-12.14;54.54;102181.94;1652753;85;21174;-57
2021/03/12 02:06:39;;;;;;;13.13;5.53;;;;;;;-12.11;54.57;102188.36;1673911;85;21339;-57
2021/03/12 02:09:13;;;;;;;15.65;5.30;;;;;;;-12.08;54.85;102189.30;1675559;85;21315;-58
2021/03/12 02:11:54;;;;;;;18.20;5.25;;;;;;;-12.04;54.78;102193.67;1663369;85;21302;-58
2021/03/12 02:14:45;;;;;;;11.55;4.75;;;;;;;-12.02;54.91;102196.23;1675590;85;21296;-57
2021/03/12 02:17:24;;;;;;;14.38;5.25;;;;;;;-11.99;55.06;102183.72;1674810;85;21364;-57
2021/03/12 02:20:37;;;;;;;11.50;4.25;;;;;;;-11.96;55.24;102190.11;1675308;85;21775;-58
2021/03/12 02:23:42;;;;;;;9.93;4.62;;;;;;;-11.91;55.27;102197.03;1674147;85;21334;-56
2021/03/12 02:26:41;;;;;;;15.03;5.42;;;;;;;-11.89;55.26;102197.11;1650706;85;21197;-56
2021/03/12 02:29:23;;;;;;;10.85;4.67;;;;;;;-11.92;55.19;102205.44;1674131;85;21732;-56
2021/03/12 02:32:00;;;;;;;13.62;5.28;;;;;;;-11.92;55.22;102207.09;1663248;85;21367;-56
2021/03/12 02:34:39;;;;;;;12.13;5.00;;;;;;;-11.89;55.46;102216.05;1675174;85;21158;-56
2021/03/12 02:37:15;;;;;;;13.93;4.75;;;;;;;-11.87;55.47;102219.05;1674941;85;21304;-57
2021/03/12 02:39:56;;;;;;;14.50;5.22;;;;;;;-11.84;55.44;102214.11;1675394;85;21783;-56
2021/03/12 02:42:31;;;;;;;11.55;4.67;;;;;;;-11.84;55.07;102220.42;1673962;85;21213;-56
2021/03/12 02:45:07;;;;;;;11.93;5.05;;;;;;;-11.86;55.05;102214.86;1675421;85;21273;-56
2021/03/12 02:47:41;;;;;;;9.63;4.33;;;;;;;-11.86;54.97;102208.15;1673693;85;21457;-56
2021/03/12 02:50:16;;;;;;;16.95;4.87;;;;;;;-11.91;54.69;102213.45;1674133;85;21228;-57
2021/03/12 02:52:48;;;;;;;;;;;;;;;-12.02;54.71;102213.91;1676226;84;21221;-57
2021/03/12 02:55:23;;;;;;;10.45;3.92;;;;;;;-12.04;54.91;102215.53;1676182;85;20178;-57
2021/03/12 02:57:57;;;;;;;11.78;4.55;;;;;;;-12.04;55.01;102221.44;1677973;85;21913;-58
2021/03/12 03:00:32;;;;;;;12.23;4.58;;;;;;;-12.04;55.03;102231.54;1679427;85;21205;-58
2021/03/12 03:03:13;;;;;;;17.80;6.17;;;;;;;-12.05;55.11;102230.20;1678094;85;21403;-56
2021/03/12 03:05:49;;;;;;;13.88;5.45;;;;;;;-12.01;55.22;102224.48;1650808;85;21331;-56
2021/03/12 03:08:22;;;;;;;25.97;5.65;;;;;;;-11.97;55.15;102221.23;1677778;85;21189;-58
2021/03/12 03:10:57;;;;;;;16.67;5.62;;;;;;;-11.97;55.10;102217.45;1679424;85;21173;-57
2021/03/12 03:13:39;;;;;;;27.00;11.18;;;;;;;-12.00;55.11;102213.16;1677916;85;21351;-56
2021/03/12 03:16:19;;;;;;;44.18;16.62;;;;;;;-12.03;55.19;102216.83;1679338;85;21205;-56
2021/03/12 03:18:53;;;;;;;35.40;12.70;;;;;;;-12.03;55.20;102216.83;1691916;84;21319;-58
2021/03/12 03:21:27;;;;;;;31.85;12.65;;;;;;;-12.01;55.32;102219.00;1692996;84;21177;-57
2021/03/12 03:24:00;;;;;;;21.77;8.60;;;;;;;-11.95;55.17;102210.77;1689192;85;21323;-59
2021/03/12 03:26:33;;;;;;;20.23;8.33;;;;;;;-11.94;55.10;102210.81;1689504;85;21334;-58
2021/03/12 03:29:06;;;;;;;26.77;8.25;;;;;;;-11.93;54.80;102214.20;1690244;85;21311;-57
2021/03/12 03:31:42;;;;;;;24.20;9.23;;;;;;;-11.92;54.34;102215.54;1689489;85;22046;-58
2021/03/12 03:34:15;;;;;;;20.70;6.80;;;;;;;-11.91;53.87;102217.64;1691358;85;21204;-57
2021/03/12 03:36:49;;;;;;;20.75;7.30;;;;;;;-11.92;53.73;102222.25;1689044;85;21342;-58
2021/03/12 03:39:22;;;;;;;17.57;7.75;;;;;;;-11.92;53.77;102226.04;1692594;85;21263;-58
2021/03/12 03:41:57;;;;;;;25.35;7.47;;;;;;;-11.94;53.68;102227.23;1692761;85;21280;-59
2021/03/12 03:44:30;;;;;;;21.02;7.08;;;;;;;-11.98;53.69;102234.66;1691605;85;21275;-57
2021/03/12 03:47:04;;;;;;;19.15;7.15;;;;;;;-11.99;53.91;102238.88;1692533;85;21302;-57
2021/03/12 03:49:38;;;;;;;21.35;7.87;;;;;;;-11.97;54.06;102245.22;1692755;85;21177;-57
2021/03/12 03:52:11;;;;;;;26.87;8.75;;;;;;;-11.85;54.23;102254.48;1692047;83;21287;-58
2021/03/12 03:54:48;;;;;;;26.20;8.40;;;;;;;-11.61;54.09;102254.39;1699472;84;21347;-57
2021/03/12 03:57:24;;;;;;;23.90;8.38;;;;;;;-11.37;53.82;102258.97;1680596;84;21613;-58
2021/03/12 03:59:59;;;;;;;18.37;7.62;;;;;;;-11.08;53.68;102250.63;1700438;84;21307;-57
2021/03/12 04:02:34;;;;;;;31.42;8.38;;;;;;;-10.75;53.33;102250.75;1701799;84;21327;-57
2021/03/12 04:05:09;;;;;;;24.35;9.05;;;;;;;-10.45;52.95;102239.83;1700715;84;21158;-57
2021/03/12 04:07:44;;;;;;;70.67;26.20;;;;;;;-10.11;52.60;102245.36;1701183;84;21327;-57
2021/03/12 04:10:17;;;;;;;54.30;21.02;;;;;;;-9.88;51.94;102248.08;1702010;84;21178;-57
2021/03/12 04:12:50;;;;;;;57.50;19.42;;;;;;;-9.69;51.73;102251.92;1701844;84;21347;-57
2021/03/12 04:15:23;;;;;;;;;;;;;;;-9.64;51.41;102252.50;1704090;84;21367;-58
2021/03/12 04:17:57;;;;;;;45.85;16.40;;;;;;;-9.50;51.49;102249.45;1701684;84;20169;-57
2021/03/12 04:20:30;;;;;;;24.27;9.45;;;;;;;-9.29;51.40;102248.70;1702148;84;21272;-57
2021/03/12 04:23:04;;;;;;;23.12;9.58;;;;;;;-9.02;51.41;102246.36;1701682;84;21283;-58
2021/03/12 04:25:39;;;;;;;22.90;9.15;;;;;;;-8.71;50.97;102242.80;1701510;84;21268;-58
2021/03/12 04:28:13;;;;;;;25.00;9.88;;;;;;;-8.50;50.55;102243.23;1659241;84;21811;-58
2021/03/12 04:30:46;;;;;;;27.80;10.78;;;;;;;-8.19;50.33;102241.28;1701944;84;21284;-57
2021/03/12 04:33:19;;;;;;;40.78;17.12;;;;;;;-7.62;49.81;102246.95;1701658;84;21300;-57
2021/03/12 04:35:55;;;;;;;29.65;12.75;;;;;;;-6.75;48.63;102242.77;1700498;84;21675;-56
2021/03/12 04:38:29;;;;;;;27.22;12.60;;;;;;;-5.86;47.21;102239.12;1701340;84;21916;-57
2021/03/12 04:41:03;;;;;;;96.97;51.85;;;;;;;-5.12;45.50;102236.73;1684681;84;21238;-57
2021/03/12 04:43:37;;;;;;;26.42;9.35;;;;;;;-4.44;43.78;102230.69;1710251;84;21204;-58
2021/03/12 04:46:12;;;;;;;17.80;9.30;;;;;;;-3.82;42.44;102236.41;1690125;84;21123;-59
2021/03/12 04:48:47;;;;;;;29.82;15.32;;;;;;;-3.20;41.05;102237.25;1711154;84;21138;-58
2021/03/12 04:51:22;;;;;;;38.50;14.68;;;;;;;-2.66;39.66;102227.33;1711798;84;21168;-59
2021/03/12 04:53:57;;;;;;;28.45;11.08;;;;;;;-2.25;38.08;102220.32;1683111;84;21776;-59
2021/03/12 04:56:30;;;;;;;19.75;9.38;;;;;;;-1.85;36.90;102222.63;1683782;85;21270;-60
2021/03/12 04:59:04;;;;;;;25.95;13.05;;;;;;;-1.54;36.15;102221.13;1683545;85;21197;-60
2021/03/12 05:01:38;;;;;;;50.00;17.15;;;;;;;-1.24;35.23;102214.02;1682637;85;21808;-60
2021/03/12 05:04:13;;;;;;;41.10;15.95;;;;;;;-0.92;34.41;102208.97;1683538;85;21808;-59
2021/03/12 05:06:45;;;;;;;;;;;;;;;-0.55;33.33;102204.23;1686434;85;21143;-61
2021/03/12 05:09:37;;;;;;;31.37;13.78;;;;;;;-0.17;32.44;102207.62;1683264;85;20274;-62
2021/03/12 05:12:13;;;;;;;37.00;16.07;;;;;;;-0.08;30.91;102200.63;1662440;85;21245;-61
2021/03/12 05:14:48;;;;;;;36.68;15.55;;;;;;;0.09;30.33;102202.96;1661971;85;21834;-60
2021/03/12 05:17:22;;;;;;;28.90;12.45;;;;;;;0.13;30.27;102206.33;1684024;85;21292;-61
2021/03/12 05:19:56;;;;;;;25.97;11.22;;;;;;;0.17;29.46;102213.98;1683204;85;21245;-61
2021/03/12 05:22:31;;;;;;;16.02;7.90;;;;;;;0.15;29.28;102214.44;1683925;85;21832;-61
2021/03/12 05:25:06;;;;;;;11.63;6.00;;;;;;;0.31;28.62;102215.91;1684660;85;21301;-64
2021/03/12 05:27:39;;;;;;;75.90;36.95;;;;;;;0.79;28.20;102218.58;1683670;85;21312;-64
2021/03/12 05:30:14;;;;;;;13.43;6.65;;;;;;;1.38;27.36;102223.48;1683202;85;21265;-62
2021/03/12 05:32:48;;;;;;;15.88;8.55;;;;;;;1.65;26.47;102221.61;1683943;85;21308;-60
2021/03/12 05:35:21;;;;;;;11.97;5.85;;;;;;;1.64;26.04;102223.80;1683197;85;21819;-61
2021/03/12 05:37:56;;;;;;;18.32;11.38;;;;;;;1.71;26.01;102230.97;1683947;85;21669;-60
2021/03/12 05:40:31;;;;;;;90.90;22.70;;;;;;;1.85;25.93;102225.06;1682742;85;21150;-65
2021/03/12 05:47:00;;;;;;;11.12;5.55;;;;;;;2.32;25.54;102226.56;1679582;85;21304;-64
2021/03/12 05:49:38;;;;;;;34.88;22.07;;;;;;;2.58;25.26;102229.41;1656637;85;21174;-70
2021/03/12 05:52:12;;;;;;;14.93;10.82;;;;;;;2.57;24.40;102240.63;1679507;84;21319;-62
2021/03/12 05:54:46;;;;;;;9.58;3.98;;;;;;;2.51;24.59;102229.12;1679326;85;22054;-61
2021/03/12 05:57:21;;;;;;;5.25;2.60;;;;;;;2.58;24.31;102223.77;1679462;85;22015;-59
2021/03/12 06:03:44;;;;;;;5.70;3.15;;;;;;;2.64;23.77;102212.43;1683749;84;21196;-63
2021/03/12 06:06:18;;;;;;;4.30;2.40;;;;;;;2.48;24.22;102213.70;1678205;85;21354;-63
2021/03/12 06:08:52;;;;;;;4.78;2.37;;;;;;;2.69;24.15;102223.52;1678326;83;21366;-62
2021/03/12 06:11:25;;;;;;;5.65;3.80;;;;;;;2.87;23.40;102221.73;1676458;85;21332;-62
2021/03/12 06:13:59;;;;;;;6.17;2.95;;;;;;;2.88;23.66;102223.89;1655258;85;21550;-60
2021/03/12 06:16:34;;;;;;;3.55;2.15;;;;;;;3.11;23.36;102224.98;1677303;85;21375;-60
2021/03/12 06:19:19;;;;;;;7.05;4.12;;;;;;;3.18;22.88;102239.45;1667249;86;21197;-65
2021/03/12 06:21:54;;;;;;;10.20;4.90;;;;;;;3.14;23.37;102240.44;1652079;86;21193;-62
2021/03/12 06:24:30;;;;;;;21.75;9.03;;;;;;;3.51;23.22;102228.61;1666911;85;21241;-61
2021/03/12 06:27:24;;;;;;;13.05;7.53;;;;;;;3.96;23.20;102240.22;1630921;85;22034;-66
2021/03/12 06:30:02;;;;;;;18.05;9.98;;;;;;;4.48;22.54;102238.17;1630153;87;21490;-60
2021/03/12 06:32:54;;;;;;;5.67;3.08;;;;;;;4.92;22.29;102231.97;1695800;84;22013;-58
2021/03/12 06:35:45;;;;;;;7.08;2.58;;;;;;;5.05;21.53;102226.30;1696993;84;21225;-58
2021/03/12 06:38:32;;;;;;;7.72;4.12;;;;;;;4.90;20.58;102222.92;1688726;84;21183;-62
2021/03/12 06:41:10;;;;;;;12.35;6.30;;;;;;;3.90;20.76;102224.87;1676838;85;22052;-61
2021/03/12 06:43:44;;;;;;;6.00;3.37;;;;;;;3.40;21.81;102231.95;1680008;85;21367;-58
2021/03/12 06:46:20;;;;;;;6.47;4.03;;;;;;;3.58;21.68;102241.81;1677551;85;21283;-64
2021/03/12 06:49:02;;;;;;;4.40;2.80;;;;;;;3.87;21.33;102231.90;1680261;84;22064;-64
2021/03/12 06:52:00;;;;;;;6.10;2.80;;;;;;;4.23;21.21;102226.05;1681100;84;21200;-61
2021/03/12 06:54:35;;;;;;;5.58;3.10;;;;;;;4.52;20.88;102224.20;1670103;85;21318;-61
2021/03/12 06:57:22;;;;;;;6.92;3.40;;;;;;;4.65;20.95;102215.13;1680244;84;21497;-60
2021/03/12 07:00:13;;;;;;;5.12;2.52;;;;;;;4.72;21.17;102206.69;1679888;83;21191;-60
2021/03/12 07:02:48;;;;;;;8.00;2.72;;;;;;;5.16;20.75;102207.28;1680137;83;21219;-60
2021/03/12 07:09:33;;;;;;;4.30;2.58;;;;;;;5.66;20.89;102191.62;1732711;82;21941;-62
2021/03/12 07:12:20;;;;;;;3.92;2.55;;;;;;;5.86;20.18;102194.32;1731518;82;21165;-58
2021/03/12 07:14:53;;;;;;;5.42;3.12;;;;;;;6.00;20.13;102192.89;1732622;82;21193;-61
2021/03/12 07:17:35;;;;;;;5.95;2.85;;;;;;;6.34;20.15;102178.09;1730004;82;21334;-60
2021/03/12 07:20:12;;;;;;;6.92;3.12;;;;;;;6.66;19.80;102195.80;1725925;82;21236;-57
2021/03/12 07:22:48;;;;;;;8.95;4.15;;;;;;;6.39;20.00;102187.86;1705359;84;21298;-60
2021/03/12 07:25:22;;;;;;;6.78;3.45;;;;;;;6.19;20.00;102192.14;1680955;84;21476;-59
2021/03/12 07:27:58;;;;;;;4.92;2.92;;;;;;;6.20;19.63;102191.25;1705446;84;21345;-62
2021/03/12 07:30:35;;;;;;;6.72;3.85;;;;;;;6.11;19.60;102191.17;1705213;84;21520;-61
2021/03/12 07:33:10;;;;;;;10.23;3.80;;;;;;;6.24;19.96;102191.52;1705601;84;22107;-62
2021/03/12 07:39:55;;;;;;;7.67;3.77;;;;;;;6.72;19.47;102194.71;1707076;84;21436;-60
2021/03/12 07:42:29;;;;;;;23.62;12.18;;;;;;;6.86;19.72;102189.77;1706126;84;21325;-63
2021/03/12 07:45:05;;;;;;;13.48;4.78;;;;;;;6.89;19.92;102192.25;1703239;84;21333;-64
2021/03/12 07:47:57;;;;;;;10.72;4.92;;;;;;;6.92;19.79;102181.70;1706208;84;21332;-60
2021/03/12 07:50:37;;;;;;;5.05;3.25;;;;;;;6.96;19.93;102189.77;1704853;84;22207;-61
2021/03/12 07:57:40;;;;;;;9.05;3.75;;;;;;;7.13;19.98;102196.84;1706275;84;21202;-59
2021/03/12 08:00:30;;;;;;;9.43;4.62;;;;;;;7.36;19.76;102200.58;1704166;84;21332;-58
2021/03/12 08:07:24;;;;;;;6.40;3.70;;;;;;;7.46;19.44;102187.08;1680973;85;21610;-60
2021/03/12 08:10:01;;;;;;;13.88;4.20;;;;;;;7.55;19.69;102187.11;1682537;85;21323;-61
2021/03/12 08:12:42;;;;;;;5.17;2.70;;;;;;;7.62;19.60;102203.34;1679268;85;21207;-58
2021/03/12 08:15:34;;;;;;;6.05;2.90;;;;;;;7.72;19.08;102201.97;1664825;85;21527;-58
2021/03/12 08:18:19;;;;;;;6.03;3.22;;;;;;;7.77;19.08;102186.52;1680982;85;21523;-63
2021/03/12 08:20:57;;;;;;;5.25;3.10;;;;;;;7.60;19.22;102209.05;1644081;85;21212;-61
2021/03/12 08:23:36;;;;;;;8.35;4.47;;;;;;;7.39;19.05;102192.18;1650714;87;21403;-61
2021/03/12 08:26:11;;;;;;;6.15;3.08;;;;;;;7.55;19.33;102189.71;1649805;87;21374;-62
2021/03/12 08:28:46;;;;;;;9.10;3.35;;;;;;;7.88;19.07;102185.55;1616493;87;21427;-62
2021/03/12 08:31:42;;;;;;;4.30;2.50;;;;;;;8.12;19.26;102186.99;1621778;88;21232;-60
2021/03/12 08:34:39;;;;;;;4.72;2.90;;;;;;;8.24;18.89;102186.86;1648919;85;21482;-58
2021/03/12 08:37:32;;;;;;;8.45;4.47;;;;;;;8.06;18.85;102178.63;1641634;87;21362;-59
2021/03/12 08:40:22;;;;;;;5.25;2.60;;;;;;;7.96;18.92;102170.39;1659970;86;21469;-57
2021/03/12 08:43:15;;;;;;;9.03;3.20;;;;;;;8.08;19.13;102157.22;1652288;86;21250;-57
2021/03/12 08:46:07;;;;;;;6.42;3.72;;;;;;;7.93;18.71;102161.85;1623506;88;21225;-59
2021/03/12 08:48:41;;;;;;;6.12;3.08;;;;;;;7.65;19.15;102162.31;1622680;88;21245;-61
2021/03/12 08:51:23;;;;;;;4.40;2.58;;;;;;;7.82;19.17;102166.29;1651833;87;21331;-58
2021/03/12 08:54:03;;;;;;;8.58;2.85;;;;;;;7.75;19.27;102164.04;1650838;85;21353;-57
2021/03/12 08:56:40;;;;;;;4.92;3.08;;;;;;;7.72;19.32;102164.17;1659493;86;21954;-60
2021/03/12 08:59:13;;;;;;;5.15;2.67;;;;;;;7.77;18.87;102159.14;1652217;86;21344;-60
2021/03/12 09:02:05;;;;;;;4.58;3.00;;;;;;;7.34;19.42;102145.09;1623345;88;21209;-59
2021/03/12 09:04:46;;;;;;;8.35;3.90;;;;;;;7.25;19.76;102137.25;1622433;88;21243;-59
2021/03/12 09:07:26;;;;;;;8.60;4.47;;;;;;;7.44;19.68;102138.55;1639853;86;21201;-60
2021/03/12 09:10:23;;;;;;;4.85;2.70;;;;;;;7.53;19.96;102142.48;1680349;85;21612;-60
2021/03/12 09:13:04;;;;;;;4.35;2.95;;;;;;;7.59;19.72;102149.58;1690937;84;21723;-60
2021/03/12 09:15:37;;;;;;;6.15;3.80;;;;;;;7.57;19.67;102151.39;1659737;85;21326;-59
2021/03/12 09:18:22;;;;;;;6.90;3.10;;;;;;;7.38;20.03;102160.96;1652416;84;21347;-63
2021/03/12 09:21:00;;;;;;;9.60;3.33;;;;;;;7.30;20.18;102161.78;1697419;84;21486;-62
2021/03/12 09:23:47;;;;;;;3.58;2.52;;;;;;;7.13;20.46;102145.61;1696990;84;21264;-61
2021/03/12 09:26:24;;;;;;;16.05;4.08;;;;;;;7.01;20.67;102140.94;1697425;84;21196;-61
2021/03/12 09:29:03;;;;;;;6.12;4.50;;;;;;;7.08;20.68;102144.11;1695333;84;21189;-60
2021/03/12 09:31:39;;;;;;;7.05;3.65;;;;;;;7.04;20.65;102135.61;1696000;83;21220;-60
2021/03/12 09:34:17;;;;;;;6.53;3.65;;;;;;;7.10;20.75;102144.44;1696421;84;21910;-60
2021/03/12 09:37:00;;;;;;;13.88;3.92;;;;;;;6.81;20.59;102129.23;1695538;83;21240;-58
2021/03/12 09:39:50;;;;;;;7.95;4.20;;;;;;;6.62;20.91;102127.89;1625838;88;21355;-62
2021/03/12 09:42:27;;;;;;;16.40;4.62;;;;;;;6.51;21.32;102122.75;1659691;86;21379;-59
2021/03/12 09:45:07;;;;;;;8.23;4.22;;;;;;;6.51;22.18;102120.16;1681298;85;21322;-60
2021/03/12 09:47:44;;;;;;;9.45;4.00;;;;;;;6.09;22.05;102105.41;1682138;85;21311;-59
2021/03/12 09:50:23;;;;;;;8.63;3.50;;;;;;;5.62;22.62;102108.17;1655765;85;21227;-59
2021/03/12 09:53:04;;;;;;;8.88;3.17;;;;;;;5.00;22.55;102074.20;1680668;84;21334;-57
2021/03/12 09:55:42;;;;;;;4.58;2.05;;;;;;;4.45;22.94;102064.95;1700471;84;21281;-57
2021/03/12 09:58:16;;;;;;;15.80;5.33;;;;;;;3.57;23.80;102067.89;1733577;82;21184;-58
2021/03/12 10:00:51;;;;;;;10.10;4.25;;;;;;;2.78;24.40;102057.75;1704371;84;21603;-56
2021/03/12 10:07:42;;;;;;;7.40;3.55;;;;;;;1.80;26.72;102044.41;1707664;84;21439;-56
2021/03/12 10:10:23;;;;;;;4.20;2.12;;;;;;;1.24;28.01;102043.13;1696548;84;21204;-56
2021/03/12 10:13:02;;;;;;;6.40;2.85;;;;;;;0.92;28.50;102040.41;1671676;84;21157;-57
2021/03/12 10:15:40;;;;;;;7.65;2.70;;;;;;;0.46;29.75;102028.87;1652213;86;21283;-57
2021/03/12 10:18:22;;;;;;;4.22;2.10;;;;;;;0.08;30.61;102013.70;1623734;86;21551;-57
2021/03/12 10:20:57;;;;;;;6.80;2.47;;;;;;;-0.27;30.62;102007.88;1649566;86;21407;-55
2021/03/12 10:23:30;;;;;;;7.92;3.27;;;;;;;-0.57;31.07;102032.35;1639973;86;21494;-56
2021/03/12 10:26:06;;;;;;;4.53;2.40;;;;;;;-0.83;31.63;102022.87;1651530;86;21408;-58
2021/03/12 10:28:39;;;;;;;6.58;2.42;;;;;;;-1.01;32.54;102028.28;1652139;86;21190;-58
2021/03/12 10:35:43;;;;;;;5.58;2.55;;;;;;;-1.37;32.97;102042.01;1651681;86;21252;-57
2021/03/12 10:38:25;;;;;;;5.22;2.42;;;;;;;-1.72;34.45;102004.74;1651387;86;21558;-59
2021/03/12 10:41:17;;;;;;;7.90;3.13;;;;;;;-1.72;34.45;102004.74;1651452;86;21237;-58
2021/03/12 10:44:09;;;;;;;6.45;2.70;;;;;;;-1.74;35.07;102016.72;1652482;86;21198;-56
2021/03/12 10:46:34;;;;;;;11.43;3.15;;;;;;;-1.77;34.84;102000.95;1652499;86;21228;-56
2021/03/12 10:49:08;;;;;;;10.85;4.50;;;;;;;-1.82;35.37;101998.86;1652646;86;21482;-57
2021/03/12 10:55:54;;;;;;;6.30;2.75;;;;;;;-1.84;36.29;101991.58;1651385;86;21477;-57
2021/03/12 10:58:37;;;;;;;16.55;5.05;;;;;;;-1.92;36.50;101989.97;1639432;86;21383;-57
2021/03/12 11:05:22;;;;;;;5.12;2.70;;;;;;;-2.11;37.10;102004.27;1651915;85;21232;-59
2021/03/12 11:07:55;;;;;;;6.67;2.77;;;;;;;-2.20;37.13;102006.06;1652518;86;22092;-60
2021/03/12 11:10:28;;;;;;;4.87;2.85;;;;;;;-2.31;37.10;101982.20;1651901;86;22099;-59
2021/03/12 11:13:01;;;;;;;12.35;2.83;;;;;;;-2.45;37.56;101987.45;1660954;86;21416;-58
2021/03/12 11:15:35;;;;;;;6.55;2.67;;;;;;;-2.45;37.97;101991.30;1664321;86;21244;-58
2021/03/12 11:18:10;;;;;;;16.35;3.92;;;;;;;-2.43;38.48;101992.56;1664810;86;21331;-58
2021/03/12 11:20:45;;;;;;;9.30;3.83;;;;;;;-2.45;38.71;101983.61;1665331;86;22232;-58
2021/03/12 11:23:18;;;;;;;10.55;4.58;;;;;;;-2.50;38.81;101974.24;1666025;86;21174;-59
2021/03/12 11:25:52;;;;;;;8.58;4.12;;;;;;;-2.56;38.34;101966.19;1665584;86;21236;-58
2021/03/12 11:28:28;;;;;;;16.12;6.65;;;;;;;-2.60;38.83;101964.95;1666016;86;21380;-59
2021/03/12 11:35:13;;;;;;;5.20;2.72;;;;;;;-2.50;39.71;101971.25;1665849;86;21869;-60
2021/03/12 11:37:47;;;;;;;6.25;2.45;;;;;;;-2.43;39.69;101974.61;1665967;86;21484;-62
2021/03/12 11:40:20;;;;;;;12.98;4.33;;;;;;;-2.46;40.04;101976.77;1665441;86;21257;-60
2021/03/12 11:42:55;;;;;;;10.13;4.75;;;;;;;-2.50;40.20;101965.27;1665551;86;21316;-59
2021/03/12 11:45:29;;;;;;;6.25;2.98;;;;;;;-2.49;40.32;101955.44;1665639;86;21335;-61
2021/03/12 11:48:06;;;;;;;5.83;2.70;;;;;;;-2.42;40.65;101966.06;1665459;86;21316;-61
2021/03/12 11:50:41;;;;;;;6.22;3.37;;;;;;;-2.40;40.14;101961.34;1664887;86;21483;-60
2021/03/12 11:53:15;;;;;;;7.90;3.00;;;;;;;-2.40;40.12;101960.48;1665086;86;22045;-60
2021/03/12 11:55:49;;;;;;;5.33;2.50;;;;;;;-2.31;39.93;101966.81;1665825;86;21350;-59
2021/03/12 11:58:22;;;;;;;7.97;3.25;;;;;;;-2.31;39.93;101966.81;1666084;86;21656;-59
2021/03/12 12:00:55;;;;;;;14.80;2.83;;;;;;;-2.29;39.70;101961.23;1665612;86;22232;-68
2021/03/12 12:03:28;;;;;;;6.43;2.90;;;;;;;-2.31;39.67;101965.53;1665871;86;21335;-59
2021/03/12 12:06:01;;;;;;;9.38;2.52;;;;;;;-2.33;39.59;101981.37;1665955;86;21448;-67
2021/03/12 12:08:34;;;;;;;4.87;2.23;;;;;;;-2.36;39.99;101969.42;1665933;86;21378;-66
2021/03/12 12:11:07;;;;;;;11.43;3.42;;;;;;;-2.32;40.04;101971.12;1665575;86;21622;-61
2021/03/12 12:13:43;;;;;;;16.55;4.22;;;;;;;-2.30;39.16;101987.34;1665801;86;21590;-61
2021/03/12 12:16:16;;;;;;;6.60;2.90;;;;;;;-2.33;39.21;101961.70;1665972;86;22154;-59
2021/03/12 12:18:50;;;;;;;10.85;4.10;;;;;;;-2.34;39.55;101959.99;1663337;85;22211;-60
2021/03/12 12:21:24;;;;;;;7.20;3.17;;;;;;;-2.36;40.04;101968.14;1663171;86;21380;-58
2021/03/12 12:23:57;;;;;;;7.03;2.30;;;;;;;-2.30;39.73;101983.49;1663987;86;21201;-59
2021/03/12 12:26:32;;;;;;;7.67;4.08;;;;;;;-2.27;38.74;101983.44;1664021;86;21244;-61
2021/03/12 12:29:05;;;;;;;6.28;2.25;;;;;;;-2.33;38.94;101959.57;1663139;86;22009;-59
2021/03/12 12:31:39;;;;;;;6.15;2.05;;;;;;;-2.33;39.36;101961.70;1662820;86;21241;-61
2021/03/12 12:34:12;;;;;;;13.05;4.45;;;;;;;-2.32;39.33;101958.29;1663499;86;21213;-61
2021/03/12 12:36:46;;;;;;;9.95;3.15;;;;;;;-2.29;39.92;101959.95;1663211;86;21240;-63
2021/03/12 12:39:20;;;;;;;8.28;4.12;;;;;;;-2.19;39.83;101961.56;1663616;86;21490;-59
2021/03/12 12:41:54;;;;;;;14.30;4.05;;;;;;;-2.16;39.83;101964.97;1662958;86;21264;-60
2021/03/12 12:44:27;;;;;;;16.50;5.42;;;;;;;-2.08;39.32;101951.61;1663912;86;21228;-62
2021/03/12 12:47:01;;;;;;;4.72;2.37;;;;;;;-2.04;39.31;101961.43;1663886;86;22096;-61
2021/03/12 12:49:34;;;;;;;5.35;2.25;;;;;;;-2.06;38.76;101984.98;1663684;86;21224;-59